Homerville, Ohio
Current Conditions -  °F | °C
As of 4:56 AM on Saturday 20 Dec 2014 (Local Time) from KBJJ Reporting Station
Overcast Overcast  
Wind Chill: 28°   Ceiling: 2100
Heat Index: 28°   Visibility: 10mi
Dew Point: 21°   Wind: 0mph
Humidity: 75%   Direction: NA
Pressure: 30.27"   Gusts: NA
Location:  41.03°N, 82.13°W
Report Text: KBJJ 200956Z AUTO 00000KT 10SM OVC021 M02/M06 A3027 RMK AO2 SLP266 T10221061 TSNO
Loading
Personal Weather Stations






























Interactive Weather Map New forecast layout! Learn more

10-Day Weather Forecast

Advertisements
Track Severe Weather on mobile